Washington, ME (04574)

11:07 AM EDT on September 02, 2015 (GMT -0400)
Appleton Village | | Change Station
CLOSE
Current Station
Personal Weather Station
Location: Appleton, ME
Elevation: 167 ft
Nearby Weather Stations

Elev 167 ft 44.29 °N, 69.25 °W | Updated 12 minutes ago

Clear
Clear
82.6 °F
Feels Like 86 °F
N
2.2
Wind Variable Wind from SSE

Today
High -- | Low -- °F
--% Chance of Precip.
Yesterday
High -- | Low -- °F
Precip. -- in
6:01 AM 7:12 PM
Waning Gibbous, 79% visible
Pressure 29.96 in
Visibility 10.0 miles
Clouds Clear
Heat Index 86 °F
Dew Point 70 °F
Humidity 65%
Rainfall 0.00 in
Snow Depth Not available.
UV 7 out of 12
Pollen 7.30 out of 12
Air Quality Not available.
Flu Activity Not available.
METAR KAUG 021453Z AUTO VRB06KT 10SM CLR 26/18 A2996 RMK AO2 SLP144 T02560183 58008
Pressure 29.96 in
Visibility 10.0 miles
Clouds Clear
Heat Index 86 °F
Dew Point 70 °F
Humidity 65%
Rainfall 0.00 in
Snow Depth Not available.
UV 7 out of 12
Pollen 7.30 out of 12
Air Quality Not available.
Flu Activity Not available.
METAR KAUG 021453Z AUTO VRB06KT 10SM CLR 26/18 A2996 RMK AO2 SLP144 T02560183 58008

10-Day Weather Forecast

×

Almanac

Astronomy

Sep. 02, 2015 Rise Set
Actual Time
Civil Twilight
Nautical Twilight
Astronomical Twilight
Moon
Length of Visible Light
Length of Day
Tomorrow will be .
, % of the Moon is Illuminated

Today's Extremes

State Highs State Lows

Community

WunderPhotos

Upload Photos

1,851,769 photos uploaded!

WunderBlogs® & News

Nearby

Air Quality

  Air Quality AQ Index Pollutant
Not available.

Snow Depth

Station Depth Elevation

Earthquake Activity

City Distance Mag. Time & Date
Minimum magnitude displayed is 2.5.

Coastal Water Temperatures

Place Temperature

Stations

Nearby Weather Stations

Station Location Temp. Windchill Dew Point Humidity Wind Precip. Elev Updated Type